Time;durP1;ratioP1;P1;durP2;ratioP2;P2;SDS_P1;SDS_P2;PMS_P1;PMS_P2;Temp;Humidity;BMP_temperature;BMP_pressure;BME280_temperature;BME280_humidity;BME280_pressure;Samples;Min_cycle;Max_cycle;Signal;HPM_P1;HPM_P2
2023/03/01 00:01:44;;;;;;;;;23.00;22.00;27.40;33.00;;;;;;109606;1259;49848;-60
2023/03/01 00:04:10;;;;;;;;;24.00;21.50;27.40;33.10;;;;;;109652;1255;45837;-60
2023/03/01 00:06:37;;;;;;;;;25.00;21.00;27.50;33.70;;;;;;109848;1260;55680;-60
2023/03/01 00:09:03;;;;;;;;;28.00;21.00;27.50;33.10;;;;;;109658;1261;53995;-61
2023/03/01 00:11:31;;;;;;;;;23.50;22.50;27.60;33.20;;;;;;109773;1257;49352;-60
2023/03/01 00:14:00;;;;;;;;;25.50;21.50;27.60;33.20;;;;;;109793;1255;49877;-60
2023/03/01 00:16:33;;;;;;;;;20.00;19.00;27.70;33.20;;;;;;109707;1255;45481;-60
2023/03/01 00:18:59;;;;;;;;;24.00;22.00;27.80;33.20;;;;;;109831;1257;55849;-61
2023/03/01 00:21:26;;;;;;;;;26.00;23.00;27.80;33.10;;;;;;109839;1257;54028;-60
2023/03/01 00:23:53;;;;;;;;;21.33;20.33;27.90;33.10;;;;;;109905;1259;49036;-61
2023/03/01 00:26:22;;;;;;;;;27.00;20.50;28.00;33.30;;;;;;109930;1255;49638;-58
2023/03/01 00:28:49;;;;;;;;;19.00;18.00;28.10;33.10;;;;;;109803;1259;45570;-59
2023/03/01 00:31:21;;;;;;;;;23.50;21.00;28.20;33.30;;;;;;109876;1255;55961;-59
2023/03/01 00:33:47;;;;;;;;;22.00;21.00;28.30;33.40;;;;;;109753;1261;53670;-60
2023/03/01 00:36:15;;;;;;;;;21.00;20.00;28.30;33.60;;;;;;109891;1256;49169;-61
2023/03/01 00:38:43;;;;;;;;;25.00;22.00;28.40;33.40;;;;;;109936;1259;49590;-59
2023/03/01 00:41:13;;;;;;;;;19.00;17.00;28.50;33.40;;;;;;109986;1259;45463;-59
2023/03/01 00:43:40;;;;;;;;;25.00;21.75;28.60;33.40;;;;;;109840;1255;56161;-60
2023/03/01 00:46:12;;;;;;;;;19.00;18.00;28.60;33.30;;;;;;109704;1255;53933;-60
2023/03/01 00:48:39;;;;;;;;;20.00;19.00;28.70;33.40;;;;;;109888;1255;50096;-59
2023/03/01 00:51:07;;;;;;;;;19.00;17.00;28.80;33.30;;;;;;109922;1255;48992;-59
2023/03/01 00:53:35;;;;;;;;;21.00;18.67;28.80;33.20;;;;;;109663;1257;47201;-60
2023/03/01 00:56:02;;;;;;;;;21.00;20.00;28.90;33.20;;;;;;109846;1255;55737;-60
2023/03/01 00:58:29;;;;;;;;;21.00;19.00;28.90;33.10;;;;;;109857;1255;53944;-60
2023/03/01 01:00:55;;;;;;;;;20.00;19.00;29.00;33.00;;;;;;109878;1260;50069;-60
2023/03/01 01:03:23;;;;;;;;;23.00;20.00;29.00;33.00;;;;;;109962;1255;50031;-60
2023/03/01 01:05:49;;;;;;;;;24.50;20.50;29.00;33.00;;;;;;109950;1258;46287;-60
2023/03/01 01:08:15;;;;;;;;;22.00;21.00;29.00;32.90;;;;;;109895;1260;55763;-60
2023/03/01 01:10:44;;;;;;;;;15.00;15.00;29.00;32.80;;;;;;109809;1255;54347;-58
2023/03/01 01:13:11;;;;;;;;;20.00;18.00;29.00;32.90;;;;;;109711;1259;49012;-59
2023/03/01 01:15:38;;;;;;;;;18.33;16.00;29.00;32.90;;;;;;109707;1260;49546;-60
2023/03/01 01:18:05;;;;;;;;;21.00;19.50;29.00;32.60;;;;;;109842;1255;45417;-60
2023/03/01 01:20:32;;;;;;;;;21.50;18.00;29.00;32.80;;;;;;109969;1260;55801;-60
2023/03/01 01:22:58;;;;;;;;;22.00;20.00;28.90;32.50;;;;;;109908;1259;54312;-60
2023/03/01 01:25:26;;;;;;;;;17.00;16.00;28.90;32.50;;;;;;109629;1260;49807;-61
2023/03/01 01:27:53;;;;;;;;;21.00;18.50;28.90;31.80;;;;;;109725;1256;50340;-61
2023/03/01 01:30:19;;;;;;;;;22.00;17.00;28.80;32.20;;;;;;109955;1257;46231;-61
2023/03/01 01:32:45;;;;;;;;;21.00;18.00;28.70;32.40;;;;;;109843;1256;56733;-59
2023/03/01 01:35:11;;;;;;;;;18.50;17.50;28.70;32.20;;;;;;109897;1256;55174;-60
2023/03/01 01:37:38;;;;;;;;;19.67;18.33;28.60;32.20;;;;;;109911;1255;49294;-61
2023/03/01 01:40:05;;;;;;;;;22.00;19.00;28.60;32.20;;;;;;109892;1256;50892;-60
2023/03/01 01:42:31;;;;;;;;;20.00;19.00;28.50;32.20;;;;;;109866;1255;45346;-61
2023/03/01 01:45:26;;;;;;;;;20.00;18.00;28.50;32.40;;;;;;109932;1259;55910;-60
2023/03/01 01:47:54;;;;;;;;;23.50;19.00;28.40;32.10;;;;;;109701;1260;54349;-61
2023/03/01 01:50:21;;;;;;;;;21.50;19.00;28.30;32.00;;;;;;109939;1259;49036;-61
2023/03/01 01:52:48;;;;;;;;;22.00;21.00;28.30;32.10;;;;;;109672;1257;49968;-61
2023/03/01 01:55:20;;;;;;;;;20.00;17.00;28.20;32.00;;;;;;109546;1263;46782;-61
2023/03/01 01:58:07;;;;;;;;;22.33;18.33;28.20;32.10;;;;;;109868;1260;55459;-61
2023/03/01 02:00:33;;;;;;;;;21.00;20.00;28.10;32.10;;;;;;109860;1255;53338;-60
2023/03/01 02:03:08;;;;;;;;;19.00;18.00;28.10;32.30;;;;;;109672;1261;50087;-60
2023/03/01 02:05:57;;;;;;;;;20.00;18.00;28.00;32.00;;;;;;109629;1261;50298;-60
2023/03/01 02:08:25;;;;;;;;;20.00;18.00;28.00;32.00;;;;;;109749;1259;45331;-60
2023/03/01 02:10:53;;;;;;;;;21.00;17.00;27.90;31.50;;;;;;109918;1255;55261;-60
2023/03/01 02:13:19;;;;;;;;;22.00;17.00;27.80;31.90;;;;;;109703;1257;53854;-59
2023/03/01 02:15:45;;;;;;;;;18.00;17.00;27.80;31.90;;;;;;109825;1255;49479;-59
2023/03/01 02:18:15;;;;;;;;;22.00;19.00;27.70;31.80;;;;;;109723;1258;49381;-59
2023/03/01 02:20:50;;;;;;;;;21.50;20.50;27.60;31.80;;;;;;109862;1257;45925;-59
2023/03/01 02:23:17;;;;;;;;;23.00;22.00;27.50;31.80;;;;;;109669;1257;55815;-59
2023/03/01 02:25:55;;;;;;;;;23.00;19.00;27.40;31.80;;;;;;109699;1259;53968;-58
2023/03/01 02:28:26;;;;;;;;;28.00;21.00;27.40;31.90;;;;;;109639;1257;50104;-60
2023/03/01 02:33:39;;;;;;;;;27.00;19.00;27.30;32.10;;;;;;109973;1257;45774;-62
2023/03/01 02:36:13;;;;;;;;;23.00;20.00;27.30;32.40;;;;;;109746;1255;56616;-61
2023/03/01 02:38:41;;;;;;;;;24.00;21.00;27.30;32.30;;;;;;109744;1259;55492;-60
2023/03/01 02:41:08;;;;;;;;;21.00;18.00;27.40;32.40;;;;;;109904;1255;50211;-59
2023/03/01 02:43:35;;;;;;;;;24.00;20.00;27.40;32.50;;;;;;110140;1255;49307;-60
2023/03/01 02:46:25;;;;;;;;;22.00;19.00;27.50;32.60;;;;;;109702;1260;45254;-60
2023/03/01 02:48:54;;;;;;;;;17.00;16.00;27.50;32.80;;;;;;109806;1258;55641;-61
2023/03/01 02:51:31;;;;;;;;;21.00;19.00;27.60;32.90;;;;;;109859;1255;54232;-61
2023/03/01 02:54:03;;;;;;;;;23.00;19.00;27.70;32.70;;;;;;109589;1261;49823;-61
2023/03/01 02:56:30;;;;;;;;;27.00;24.00;27.80;32.70;;;;;;109668;1259;50480;-62
2023/03/01 02:59:00;;;;;;;;;20.00;18.00;27.80;32.50;;;;;;109858;1257;45927;-62
2023/03/01 03:01:36;;;;;;;;;19.00;17.50;27.90;32.60;;;;;;109692;1259;55875;-61
2023/03/01 03:04:04;;;;;;;;;23.50;20.50;27.90;32.60;;;;;;109545;1260;53773;-60
2023/03/01 03:06:31;;;;;;;;;20.00;18.00;28.00;32.70;;;;;;109703;1257;50081;-60
2023/03/01 03:08:57;;;;;;;;;27.00;21.00;28.10;32.70;;;;;;109592;1257;49002;-62
2023/03/01 03:11:24;;;;;;;;;19.50;18.00;28.20;32.90;;;;;;109713;1259;45423;-61
2023/03/01 03:13:51;;;;;;;;;20.00;15.00;28.20;32.90;;;;;;109674;1260;55550;-61
2023/03/01 03:16:19;;;;;;;;;20.50;19.00;28.30;32.70;;;;;;109623;1255;53942;-61
2023/03/01 03:18:45;;;;;;;;;18.00;17.00;28.40;32.90;;;;;;109570;1260;49395;-62
2023/03/01 03:21:12;;;;;;;;;23.00;18.00;28.40;32.70;;;;;;109610;1260;48861;-59
2023/03/01 03:23:38;;;;;;;;;24.00;22.00;28.50;32.70;;;;;;109716;1260;45792;-61
2023/03/01 03:26:05;;;;;;;;;21.00;18.00;28.60;32.90;;;;;;109679;1256;55346;-61
2023/03/01 03:28:33;;;;;;;;;26.00;21.50;28.60;32.60;;;;;;109652;1258;54167;-62
2023/03/01 03:31:03;;;;;;;;;20.50;18.50;28.70;32.60;;;;;;109669;1255;49190;-60
2023/03/01 03:33:30;;;;;;;;;22.50;19.00;28.70;32.50;;;;;;110057;1255;49101;-61
2023/03/01 03:35:57;;;;;;;;;17.00;16.00;28.80;32.50;;;;;;109588;1257;45431;-60
2023/03/01 03:38:23;;;;;;;;;19.00;18.00;28.90;32.50;;;;;;109640;1260;55817;-60
2023/03/01 03:40:50;;;;;;;;;;;28.90;32.40;;;;;;109604;1255;53602;-60
2023/03/01 03:43:22;;;;;;;;;22.00;19.50;28.90;32.60;;;;;;109620;1255;49643;-61
2023/03/01 03:45:50;;;;;;;;;18.00;17.00;28.90;32.30;;;;;;109694;1260;49514;-61
2023/03/01 03:48:17;;;;;;;;;20.50;19.50;28.90;32.20;;;;;;109609;1260;46865;-61
2023/03/01 03:50:49;;;;;;;;;23.00;20.00;28.90;32.10;;;;;;109582;1261;55887;-62
2023/03/01 03:53:15;;;;;;;;;18.00;17.00;28.90;32.50;;;;;;109580;1260;54003;-62
2023/03/01 03:55:41;;;;;;;;;17.00;16.00;28.90;32.20;;;;;;109585;1259;49660;-61
2023/03/01 03:58:09;;;;;;;;;28.00;23.00;28.90;32.00;;;;;;109893;1255;49788;-61
2023/03/01 04:00:38;;;;;;;;;21.00;18.67;28.80;32.10;;;;;;109928;1260;46019;-60
2023/03/01 04:03:04;;;;;;;;;;;28.80;32.00;;;;;;109769;1255;57278;-59
2023/03/01 04:05:31;;;;;;;;;18.00;17.00;28.70;31.90;;;;;;109623;1260;53784;-61
2023/03/01 04:08:00;;;;;;;;;16.00;15.00;28.70;31.90;;;;;;109564;1259;48418;-60
2023/03/01 04:10:51;;;;;;;;;20.00;19.00;28.70;32.40;;;;;;109586;1260;49297;-60
2023/03/01 04:13:20;;;;;;;;;24.00;20.00;28.60;31.90;;;;;;109794;1260;45336;-59
2023/03/01 04:15:50;;;;;;;;;20.00;18.00;28.60;31.80;;;;;;109854;1259;55360;-58
2023/03/01 04:18:19;;;;;;;;;24.50;20.50;28.60;32.10;;;;;;109618;1259;53544;-59
2023/03/01 04:20:46;;;;;;;;;22.00;21.00;28.50;31.70;;;;;;109588;1255;49282;-59
2023/03/01 04:23:19;;;;;;;;;22.00;19.50;28.50;31.70;;;;;;109904;1255;49662;-60
2023/03/01 04:25:57;;;;;;;;;22.00;21.00;28.40;31.60;;;;;;109900;1259;45991;-60
2023/03/01 04:28:29;;;;;;;;;22.00;20.00;28.40;31.60;;;;;;109902;1259;56705;-61
2023/03/01 04:30:58;;;;;;;;;15.67;14.67;28.30;31.50;;;;;;109889;1260;54385;-60
2023/03/01 04:33:25;;;;;;;;;18.00;17.00;28.20;31.50;;;;;;109852;1259;49981;-62
2023/03/01 04:35:51;;;;;;;;;23.00;18.00;28.10;31.50;;;;;;109842;1259;49774;-60
2023/03/01 04:38:18;;;;;;;;;26.00;21.00;28.10;31.40;;;;;;109826;1260;45808;-60
2023/03/01 04:40:45;;;;;;;;;22.00;22.00;28.00;31.40;;;;;;109882;1257;56802;-60
2023/03/01 04:43:14;;;;;;;;;19.00;18.00;27.90;31.40;;;;;;109726;1258;53670;-60
2023/03/01 04:45:40;;;;;;;;;26.00;21.50;27.90;31.50;;;;;;109810;1258;49493;-61
2023/03/01 04:48:07;;;;;;;;;22.67;19.67;27.80;31.40;;;;;;109644;1259;49132;-61
2023/03/01 04:50:33;;;;;;;;;22.50;20.00;27.70;31.40;;;;;;109654;1255;45313;-61
2023/03/01 04:52:59;;;;;;;;;19.00;18.00;27.70;31.70;;;;;;109733;1256;56861;-59
2023/03/01 04:55:27;;;;;;;;;23.00;20.00;27.60;31.50;;;;;;109951;1255;54422;-61
2023/03/01 04:57:54;;;;;;;;;23.00;22.00;27.50;31.40;;;;;;109926;1255;49718;-61
2023/03/01 05:00:21;;;;;;;;;20.00;19.00;27.50;31.50;;;;;;109856;1255;49933;-59
2023/03/01 05:02:55;;;;;;;;;22.00;21.00;27.40;31.40;;;;;;109811;1259;46715;-60
2023/03/01 05:05:27;;;;;;;;;23.50;20.00;27.30;31.50;;;;;;109930;1259;55238;-60
2023/03/01 05:07:56;;;;;;;;;21.00;20.00;27.30;31.50;;;;;;109951;1255;53799;-60
2023/03/01 05:10:24;;;;;;;;;24.00;20.50;27.20;31.50;;;;;;109689;1259;49833;-59
2023/03/01 05:12:51;;;;;;;;;23.00;21.00;27.10;31.60;;;;;;109923;1259;49217;-60
2023/03/01 05:15:18;;;;;;;;;24.00;21.00;27.10;31.60;;;;;;109775;1257;45754;-60
2023/03/01 05:17:46;;;;;;;;;22.00;21.00;27.00;31.80;;;;;;109731;1255;55940;-60
2023/03/01 05:20:12;;;;;;;;;28.00;23.00;26.90;32.00;;;;;;109812;1260;54199;-61
2023/03/01 05:22:38;;;;;;;;;32.00;29.00;26.90;32.50;;;;;;109611;1255;49869;-60
2023/03/01 05:25:07;;;;;;;;;35.50;30.00;26.80;33.40;;;;;;109644;1255;49104;-61
2023/03/01 05:27:34;;;;;;;;;32.00;26.00;26.90;33.40;;;;;;109667;1256;45521;-60
2023/03/01 05:30:13;;;;;;;;;29.67;27.00;26.90;33.60;;;;;;109878;1255;55022;-61
2023/03/01 05:32:47;;;;;;;;;32.00;28.33;26.90;33.70;;;;;;109784;1260;54322;-61
2023/03/01 05:35:16;;;;;;;;;29.00;26.00;26.90;33.70;;;;;;109867;1258;49521;-61
2023/03/01 05:37:45;;;;;;;;;30.00;29.00;27.00;33.10;;;;;;109693;1261;49091;-61
2023/03/01 05:40:15;;;;;;;;;30.00;28.00;27.00;33.60;;;;;;109771;1260;46069;-61
2023/03/01 05:42:47;;;;;;;;;37.50;31.50;26.90;33.50;;;;;;109600;1260;56571;-59
2023/03/01 05:45:14;;;;;;;;;32.00;27.50;27.00;33.50;;;;;;109610;1255;54475;-60
2023/03/01 05:47:43;;;;;;;;;38.00;31.00;27.00;33.50;;;;;;109697;1260;49007;-59
2023/03/01 05:50:21;;;;;;;;;34.00;30.00;27.00;34.30;;;;;;109919;1259;49129;-59
2023/03/01 05:52:56;;;;;;;;;41.00;30.00;27.00;34.40;;;;;;109788;1260;45169;-63
2023/03/01 05:55:23;;;;;;;;;37.00;28.00;27.00;34.40;;;;;;109889;1259;55971;-61
2023/03/01 05:57:50;;;;;;;;;35.50;31.50;27.00;34.30;;;;;;109963;1259;54878;-62
2023/03/01 06:00:19;;;;;;;;;31.50;28.50;27.00;34.20;;;;;;109796;1255;49095;-62
2023/03/01 06:02:45;;;;;;;;;38.00;32.00;27.00;34.30;;;;;;109824;1256;49249;-61
2023/03/01 06:05:12;;;;;;;;;35.00;28.00;26.90;34.30;;;;;;109965;1259;45976;-63
2023/03/01 06:07:39;;;;;;;;;32.00;27.00;26.90;34.50;;;;;;109940;1258;56294;-63
2023/03/01 06:10:07;;;;;;;;;35.00;32.00;26.90;34.20;;;;;;109845;1261;54271;-63
2023/03/01 06:12:35;;;;;;;;;35.75;28.75;26.90;34.20;;;;;;109783;1255;49171;-61
2023/03/01 06:15:04;;;;;;;;;30.00;27.67;26.80;34.00;;;;;;109567;1261;49634;-61
2023/03/01 06:17:33;;;;;;;;;36.00;30.00;26.80;33.70;;;;;;109657;1260;45038;-61
2023/03/01 06:19:59;;;;;;;;;34.00;29.50;26.70;33.60;;;;;;109845;1258;55625;-62
2023/03/01 06:22:25;;;;;;;;;34.00;28.00;26.70;33.50;;;;;;109768;1255;54803;-63
2023/03/01 06:24:51;;;;;;;;;31.50;27.00;26.70;33.50;;;;;;109712;1260;50025;-61
2023/03/01 06:27:18;;;;;;;;;28.00;25.50;26.60;33.20;;;;;;109695;1259;49600;-60
2023/03/01 06:29:44;;;;;;;;;51.00;40.00;26.60;33.10;;;;;;109777;1260;45550;-63
2023/03/01 06:32:10;;;;;;;;;52.50;41.50;26.50;30.00;;;;;;109682;1259;55289;-62
2023/03/01 06:34:36;;;;;;;;;56.00;45.00;26.30;28.40;;;;;;109988;1254;54721;-65
2023/03/01 06:37:04;;;;;;;;;57.50;45.50;25.90;27.80;;;;;;109875;1256;50533;-63
2023/03/01 06:39:32;;;;;;;;;50.00;39.50;25.50;28.00;;;;;;109798;1259;49177;-63
2023/03/01 06:41:58;;;;;;;;;48.00;36.00;25.20;30.10;;;;;;109697;1260;45155;-63
2023/03/01 06:44:25;;;;;;;;;41.00;35.00;25.10;36.00;;;;;;109578;1260;57203;-64
2023/03/01 06:46:51;;;;;;;;;46.00;37.00;25.10;35.60;;;;;;109615;1259;54029;-60
2023/03/01 06:49:17;;;;;;;;;51.00;39.00;25.10;35.70;;;;;;109919;1259;49861;-64
2023/03/01 06:51:44;;;;;;;;;60.50;44.50;25.10;36.00;;;;;;109656;1257;49084;-65
2023/03/01 06:54:10;;;;;;;;;62.00;44.50;25.20;37.10;;;;;;109694;1259;45163;-63
2023/03/01 06:56:36;;;;;;;;;63.00;44.00;25.20;37.60;;;;;;109798;1256;56178;-64
2023/03/01 06:59:03;;;;;;;;;64.00;44.00;25.20;37.60;;;;;;109692;1259;54735;-63
2023/03/01 07:01:30;;;;;;;;;64.00;46.33;25.20;37.60;;;;;;109717;1255;49411;-63
2023/03/01 07:03:56;;;;;;;;;;;25.20;37.80;;;;;;109761;1258;49326;-63
2023/03/01 07:06:23;;;;;;;;;71.00;50.00;25.30;38.10;;;;;;109843;1255;163851;-64
2023/03/01 07:08:50;;;;;;;;;60.00;43.00;25.30;38.40;;;;;;109876;1260;55169;-63
2023/03/01 07:11:16;;;;;;;;;65.50;44.00;25.20;38.80;;;;;;109799;1255;53430;-64
2023/03/01 07:13:42;;;;;;;;;69.00;51.00;25.20;38.50;;;;;;109881;1260;49397;-65
2023/03/01 07:16:08;;;;;;;;;72.00;48.00;25.20;38.20;;;;;;109911;1260;49535;-64
2023/03/01 07:18:35;;;;;;;;;70.00;46.00;25.20;37.90;;;;;;109908;1255;47195;-63
2023/03/01 07:21:06;;;;;;;;;69.00;47.00;25.10;37.60;;;;;;109918;1255;55188;-64
2023/03/01 07:23:32;;;;;;;;;60.50;43.00;25.10;37.40;;;;;;110259;1257;53864;-68
2023/03/01 07:26:00;;;;;;;;;64.00;45.00;25.10;37.40;;;;;;109729;1258;49039;-72
2023/03/01 07:28:27;;;;;;;;;60.00;42.00;25.00;37.80;;;;;;109787;1255;49305;-74
2023/03/01 07:30:53;;;;;;;;;63.50;45.50;25.00;38.20;;;;;;109923;1260;45512;-75
2023/03/01 07:33:20;;;;;;;;;69.00;46.00;24.90;38.70;;;;;;109972;1261;55353;-75
2023/03/01 07:35:46;;;;;;;;;67.00;48.00;24.90;39.00;;;;;;109865;1255;54243;-72
2023/03/01 07:38:13;;;;;;;;;66.00;46.50;24.80;38.90;;;;;;109691;1260;49800;-74
2023/03/01 07:40:39;;;;;;;;;60.00;44.00;24.70;38.80;;;;;;109773;1260;49204;-74
2023/03/01 07:43:05;;;;;;;;;64.00;44.00;24.70;39.00;;;;;;109707;1255;46256;-73
2023/03/01 07:45:32;;;;;;;;;65.00;46.00;24.60;39.00;;;;;;109768;1257;55082;-73
2023/03/01 07:47:58;;;;;;;;;55.75;37.50;24.50;39.10;;;;;;109713;1257;53383;-72
2023/03/01 07:50:24;;;;;;;;;48.50;37.00;24.50;39.10;;;;;;109895;1260;49770;-74
2023/03/01 07:52:50;;;;;;;;;;;24.50;38.90;;;;;;109882;1255;50767;-74
2023/03/01 07:55:16;;;;;;;;;57.00;42.00;24.50;38.80;;;;;;109703;1260;45678;-76
2023/03/01 07:57:43;;;;;;;;;60.00;42.00;24.60;38.90;;;;;;109669;1261;55532;-76
2023/03/01 08:00:11;;;;;;;;;53.00;38.00;24.60;38.70;;;;;;109669;1260;53309;-71
2023/03/01 08:02:38;;;;;;;;;53.00;36.00;24.70;38.90;;;;;;109689;1255;48984;-76
2023/03/01 08:05:05;;;;;;;;;55.00;36.50;24.70;38.90;;;;;;109697;1255;50301;-72
2023/03/01 08:07:32;;;;;;;;;43.00;34.50;24.80;38.90;;;;;;109720;1261;45710;-72
2023/03/01 08:09:58;;;;;;;;;48.00;35.00;24.80;38.60;;;;;;109580;1257;55574;-71
2023/03/01 08:12:27;;;;;;;;;43.00;34.00;24.80;38.50;;;;;;109934;1260;54173;-70
2023/03/01 08:14:54;;;;;;;;;47.00;35.00;24.80;38.50;;;;;;109667;1260;49273;-78
2023/03/01 08:17:20;;;;;;;;;46.50;35.00;24.90;38.40;;;;;;109828;1261;49633;-63
2023/03/01 08:19:46;;;;;;;;;52.00;38.00;24.90;38.20;;;;;;109777;1255;45919;-63
2023/03/01 08:22:12;;;;;;;;;54.00;38.50;24.90;38.30;;;;;;109726;1260;55362;-70
2023/03/01 08:24:38;;;;;;;;;52.00;38.00;25.00;38.80;;;;;;109762;1255;54562;-71
2023/03/01 08:27:05;;;;;;;;;48.00;33.00;25.00;38.10;;;;;;109762;1257;50418;-71
2023/03/01 08:29:32;;;;;;;;;46.00;35.00;25.00;38.10;;;;;;109728;1255;49904;-67
2023/03/01 08:31:59;;;;;;;;;45.50;34.00;25.00;38.00;;;;;;110244;1255;46573;-67
2023/03/01 08:34:25;;;;;;;;;52.00;37.00;25.10;37.80;;;;;;110119;1255;55609;-66
2023/03/01 08:36:52;;;;;;;;;41.50;34.00;25.10;37.70;;;;;;110049;1256;53539;-66
2023/03/01 08:39:19;;;;;;;;;47.00;35.00;25.20;37.70;;;;;;110039;1260;50257;-66
2023/03/01 08:41:46;;;;;;;;;49.00;37.00;25.30;37.40;;;;;;110031;1259;49685;-67
2023/03/01 08:44:16;;;;;;;;;47.00;35.00;25.30;37.80;;;;;;110003;1255;46222;-66
2023/03/01 08:46:45;;;;;;;;;45.33;33.67;25.40;37.20;;;;;;110074;1260;55279;-68
2023/03/01 08:49:12;;;;;;;;;;;25.40;37.20;;;;;;109935;1259;54262;-67
2023/03/01 08:51:39;;;;;;;;;44.00;34.00;25.50;37.20;;;;;;109806;1255;49616;-68
2023/03/01 08:54:09;;;;;;;;;45.50;31.50;25.50;37.20;;;;;;109950;1255;49479;-66
2023/03/01 08:56:35;;;;;;;;;42.00;30.00;25.50;37.50;;;;;;109948;1261;45846;-68
2023/03/01 08:59:02;;;;;;;;;38.00;30.00;25.60;37.20;;;;;;110004;1260;55613;-69
2023/03/01 09:01:28;;;;;;;;;45.00;36.00;25.60;37.20;;;;;;110041;1260;54112;-78
2023/03/01 09:03:54;;;;;;;;;48.00;35.00;25.60;37.10;;;;;;110032;1255;49615;-69
2023/03/01 09:06:21;;;;;;;;;43.00;30.00;25.70;37.10;;;;;;109904;1260;50100;-65
2023/03/01 09:08:49;;;;;;;;;40.00;30.00;25.70;36.90;;;;;;109886;1255;45474;-67
2023/03/01 09:11:20;;;;;;;;;42.50;32.50;25.80;37.00;;;;;;109934;1258;56003;-68
2023/03/01 09:13:47;;;;;;;;;36.33;30.00;25.80;37.00;;;;;;109835;1255;55149;-67
2023/03/01 09:16:17;;;;;;;;;46.00;31.00;25.80;36.90;;;;;;109988;1257;49762;-67
2023/03/01 09:18:44;;;;;;;;;39.00;30.00;25.80;36.70;;;;;;109984;1255;49338;-67
2023/03/01 09:21:13;;;;;;;;;35.50;29.50;25.90;36.70;;;;;;110037;1255;46305;-67
2023/03/01 09:23:44;;;;;;;;;39.00;31.50;25.90;36.70;;;;;;109907;1258;55611;-64
2023/03/01 09:26:14;;;;;;;;;35.00;30.00;25.90;36.50;;;;;;110039;1255;53408;-65
2023/03/01 09:28:46;;;;;;;;;44.00;30.50;25.90;36.50;;;;;;110112;1255;49553;-67
2023/03/01 09:31:13;;;;;;;;;40.00;31.00;26.00;36.50;;;;;;109892;1260;48945;-65
2023/03/01 09:33:41;;;;;;;;;42.00;31.00;25.90;37.10;;;;;;109713;1257;45255;-64
2023/03/01 09:36:13;;;;;;;;;36.50;29.50;26.00;36.70;;;;;;109656;1257;55911;-67
2023/03/01 09:38:39;;;;;;;;;41.50;31.00;26.00;36.40;;;;;;109862;1259;54754;-65
2023/03/01 09:41:17;;;;;;;;;34.00;27.00;26.00;36.30;;;;;;109778;1257;50626;-65
2023/03/01 09:43:54;;;;;;;;;33.00;28.00;26.00;36.30;;;;;;109921;1255;49159;-66
2023/03/01 09:46:22;;;;;;;;;39.67;28.67;26.00;36.90;;;;;;109701;1259;46226;-64
2023/03/01 09:48:54;;;;;;;;;30.00;27.00;26.00;36.40;;;;;;109571;1258;55463;-66
2023/03/01 09:51:31;;;;;;;;;29.00;24.00;26.00;36.90;;;;;;109748;1255;55581;-63
2023/03/01 09:54:01;;;;;;;;;28.00;26.50;26.00;36.90;;;;;;109553;1258;49585;-65
2023/03/01 09:56:34;;;;;;;;;28.00;25.00;26.00;37.10;;;;;;109520;1257;49464;-66
2023/03/01 09:59:39;;;;;;;;;27.00;25.00;26.10;37.30;;;;;;109569;1258;45294;-70
2023/03/01 10:02:43;;;;;;;;;30.00;25.00;26.10;37.20;;;;;;109151;1266;56315;-64
2023/03/01 10:05:41;;;;;;;;;33.00;27.00;26.10;37.10;;;;;;109100;1260;54543;-64
2023/03/01 10:08:07;;;;;;;;;30.00;26.00;26.20;37.00;;;;;;109589;1260;49823;-63
2023/03/01 10:10:38;;;;;;;;;37.00;31.00;26.20;37.10;;;;;;109728;1257;49593;-68
2023/03/01 10:13:28;;;;;;;;;30.00;28.00;26.20;36.90;;;;;;109679;1255;46689;-66
2023/03/01 10:15:57;;;;;;;;;32.50;28.50;26.20;37.10;;;;;;109749;1258;55246;-67
2023/03/01 10:18:27;;;;;;;;;28.67;22.67;26.20;37.10;;;;;;109564;1258;53442;-65
2023/03/01 10:20:58;;;;;;;;;32.00;27.50;26.30;37.20;;;;;;109779;1259;50291;-63
2023/03/01 10:23:27;;;;;;;;;31.50;28.00;26.30;37.10;;;;;;109753;1260;49250;-64
2023/03/01 10:26:22;;;;;;;;;24.00;23.00;26.30;37.10;;;;;;109782;1256;45984;-65
2023/03/01 10:28:48;;;;;;;;;30.00;26.00;26.30;37.10;;;;;;109689;1260;55172;-64
2023/03/01 10:31:20;;;;;;;;;30.00;26.00;26.30;37.10;;;;;;109785;1255;54111;-65
2023/03/01 10:33:47;;;;;;;;;29.33;26.33;26.30;37.00;;;;;;109715;1255;49652;-65
2023/03/01 10:36:14;;;;;;;;;24.00;21.00;26.40;37.40;;;;;;110014;1254;49532;-66
2023/03/01 10:38:53;;;;;;;;;22.00;20.00;26.40;37.50;;;;;;109763;1255;46178;-66
2023/03/01 10:41:23;;;;;;;;;27.00;25.00;26.40;37.20;;;;;;110025;1255;56050;-63
2023/03/01 10:43:54;;;;;;;;;27.50;21.50;26.40;37.10;;;;;;109943;1260;53937;-62
2023/03/01 10:46:36;;;;;;;;;23.00;20.00;26.50;37.20;;;;;;109921;1256;49196;-62
2023/03/01 10:49:22;;;;;;;;;26.00;22.00;26.50;36.80;;;;;;110005;1260;49430;-61
2023/03/01 10:51:51;;;;;;;;;29.00;24.50;26.50;36.70;;;;;;109966;1261;45643;-64
2023/03/01 10:54:20;;;;;;;;;22.00;20.00;26.50;36.70;;;;;;110009;1255;55903;-62
2023/03/01 10:56:53;;;;;;;;;27.00;22.00;26.60;36.70;;;;;;109940;1260;54611;-63
2023/03/01 10:59:26;;;;;;;;;26.00;22.00;26.60;36.60;;;;;;109952;1260;50021;-63
2023/03/01 11:02:28;;;;;;;;;19.00;17.00;26.60;36.60;;;;;;109968;1260;50343;-64
2023/03/01 11:04:58;;;;;;;;;21.50;19.00;26.70;36.50;;;;;;109587;1262;45202;-65
2023/03/01 11:07:24;;;;;;;;;24.00;21.00;26.70;36.30;;;;;;110036;1260;56707;-69
2023/03/01 11:09:50;;;;;;;;;27.00;21.00;26.80;36.30;;;;;;109907;1257;54901;-64
2023/03/01 11:12:17;;;;;;;;;24.00;18.50;26.80;36.40;;;;;;109953;1255;49431;-67
2023/03/01 11:14:52;;;;;;;;;24.00;20.00;26.80;36.40;;;;;;109904;1255;49359;-70
2023/03/01 11:17:28;;;;;;;;;25.00;19.00;26.90;36.20;;;;;;109826;1257;45270;-65
2023/03/01 11:20:14;;;;;;;;;21.00;19.00;26.80;36.60;;;;;;109836;1257;56167;-67
2023/03/01 11:22:53;;;;;;;;;18.00;17.00;26.90;36.50;;;;;;109861;1256;54673;-64
2023/03/01 11:25:29;;;;;;;;;19.00;18.00;26.90;36.70;;;;;;109796;1257;50172;-68
2023/03/01 11:27:57;;;;;;;;;21.00;20.00;26.90;36.90;;;;;;109854;1254;49781;-67
2023/03/01 11:30:32;;;;;;;;;26.00;20.00;26.90;36.60;;;;;;109984;1255;46064;-67
2023/03/01 11:33:08;;;;;;;;;20.00;17.00;27.00;36.70;;;;;;110063;1257;55468;-66
2023/03/01 11:35:37;;;;;;;;;21.67;19.33;27.00;36.70;;;;;;109828;1257;53778;-65
2023/03/01 11:38:16;;;;;;;;;21.00;20.00;27.10;36.70;;;;;;109822;1255;49822;-66
2023/03/01 11:40:46;;;;;;;;;24.00;17.50;27.20;37.20;;;;;;109817;1261;50458;-70
2023/03/01 11:43:27;;;;;;;;;20.00;17.00;27.20;36.80;;;;;;109609;1262;45591;-69
2023/03/01 11:46:15;;;;;;;;;20.00;18.00;27.20;36.80;;;;;;109605;1261;55846;-65
2023/03/01 11:49:19;;;;;;;;;21.00;19.00;27.30;36.80;;;;;;109856;1260;55176;-68
2023/03/01 11:52:19;;;;;;;;;23.50;19.00;27.30;36.50;;;;;;109760;1260;49613;-66
2023/03/01 11:55:07;;;;;;;;;19.50;18.00;27.30;36.50;;;;;;109711;1259;49988;-62
2023/03/01 11:57:52;;;;;;;;;22.00;19.00;27.40;36.60;;;;;;109931;1260;46334;-68
2023/03/01 12:00:55;;;;;;;;;21.00;19.00;27.40;36.50;;;;;;109946;1259;55367;-67
2023/03/01 12:03:28;;;;;;;;;16.00;14.50;27.40;36.40;;;;;;109849;1260;54305;-70
2023/03/01 12:06:03;;;;;;;;;21.00;19.00;27.40;36.40;;;;;;109607;1261;49926;-67
2023/03/01 12:08:32;;;;;;;;;18.00;16.00;27.50;36.60;;;;;;109818;1257;51912;-67
2023/03/01 12:11:01;;;;;;;;;21.00;16.00;27.50;36.40;;;;;;109670;1260;45529;-66
2023/03/01 12:14:02;;;;;;;;;17.00;16.00;27.50;36.40;;;;;;109624;1258;56275;-68
2023/03/01 12:17:00;;;;;;;;;16.00;15.00;27.60;36.50;;;;;;109583;1257;55405;-67
2023/03/01 12:19:32;;;;;;;;;19.00;18.00;27.60;36.40;;;;;;109336;1260;49438;-62
2023/03/01 12:22:33;;;;;;;;;19.50;17.50;27.60;36.60;;;;;;109604;1260;49212;-67
2023/03/01 12:24:59;;;;;;;;;19.00;17.00;27.60;35.70;;;;;;109315;1260;46172;-66
2023/03/01 12:27:58;;;;;;;;;18.00;15.00;27.70;35.70;;;;;;109909;1260;56869;-66
2023/03/01 12:30:24;;;;;;;;;;;27.70;35.60;;;;;;109744;1256;53391;-66
2023/03/01 12:33:03;;;;;;;;;15.00;14.00;27.70;35.60;;;;;;109649;1259;50217;-66
2023/03/01 12:36:02;;;;;;;;;16.50;14.50;27.80;35.60;;;;;;109578;1255;49766;-66
2023/03/01 12:38:37;;;;;;;;;20.33;17.00;27.80;35.50;;;;;;109555;1255;45453;-65